Time;durP1;ratioP1;P1;durP2;ratioP2;P2;SDS_P1;SDS_P2;PMS_P1;PMS_P2;Temp;Humidity;BMP_temperature;BMP_pressure;BME280_temperature;BME280_humidity;BME280_pressure;Samples;Min_cycle;Max_cycle;Signal;HPM_P1;HPM_P2
2022/06/24 00:02:22;;;;;;;21.57;20.37;;;21.50;84.40;;;;;;5028545;28;20578;-69
2022/06/24 00:04:54;;;;;;;22.93;21.00;;;21.50;84.50;;;;;;5030813;28;21042;-70
2022/06/24 00:07:22;;;;;;;22.20;20.83;;;21.50;85.20;;;;;;5033053;28;20476;-70
2022/06/24 00:09:50;;;;;;;22.87;20.70;;;21.40;85.90;;;;;;5023759;28;20453;-67
2022/06/24 00:12:20;;;;;;;21.83;20.33;;;21.40;86.10;;;;;;5027224;28;20460;-67
2022/06/24 00:14:58;;;;;;;22.50;21.10;;;21.30;86.60;;;;;;5025378;28;20594;-67
2022/06/24 00:17:28;;;;;;;22.00;20.80;;;21.30;86.60;;;;;;5030380;28;20858;-68
2022/06/24 00:19:57;;;;;;;22.37;21.07;;;21.30;86.70;;;;;;5025246;28;20475;-68
2022/06/24 00:22:25;;;;;;;22.07;20.87;;;21.20;86.60;;;;;;5023636;28;20470;-67
2022/06/24 00:25:08;;;;;;;22.20;20.90;;;21.20;86.70;;;;;;5023218;28;20453;-67
2022/06/24 00:27:36;;;;;;;22.00;20.60;;;21.20;86.50;;;;;;5032730;28;20488;-67
2022/06/24 00:30:10;;;;;;;22.83;20.90;;;21.20;86.60;;;;;;5025785;28;20454;-67
2022/06/24 00:32:37;;;;;;;21.60;20.40;;;21.20;86.60;;;;;;5024114;28;20475;-67
2022/06/24 00:35:07;;;;;;;21.17;19.97;;;21.10;86.90;;;;;;5024946;28;20994;-70
2022/06/24 00:37:35;;;;;;;22.00;20.40;;;21.10;86.80;;;;;;5044780;28;20514;-70
2022/06/24 00:40:22;;;;;;;22.07;20.47;;;21.10;86.90;;;;;;5028363;28;20551;-69
2022/06/24 00:42:50;;;;;;;21.60;20.30;;;21.10;86.80;;;;;;5031284;28;20466;-69
2022/06/24 00:45:25;;;;;;;22.23;20.80;;;21.00;87.40;;;;;;5035925;28;20542;-68
2022/06/24 00:47:53;;;;;;;22.07;20.57;;;21.00;87.50;;;;;;5027354;28;20566;-67
2022/06/24 00:50:23;;;;;;;22.00;20.60;;;21.00;86.60;;;;;;5026187;28;21228;-66
2022/06/24 00:52:52;;;;;;;22.20;20.80;;;21.00;86.70;;;;;;5032982;28;20512;-67
2022/06/24 00:55:21;;;;;;;21.30;19.93;;;21.00;86.80;;;;;;5018753;28;20452;-67
2022/06/24 00:57:50;;;;;;;20.77;19.40;;;21.00;86.40;;;;;;5030797;28;20584;-67
2022/06/24 01:00:18;;;;;;;20.73;19.53;;;21.00;86.30;;;;;;5026368;28;20908;-67
2022/06/24 01:02:47;;;;;;;20.73;19.63;;;21.00;86.60;;;;;;5031487;28;21158;-67
2022/06/24 01:05:13;;;;;;;20.83;19.60;;;21.00;86.70;;;;;;5029075;28;20456;-66
2022/06/24 01:07:41;;;;;;;21.10;19.63;;;21.00;86.90;;;;;;5027444;28;20493;-70
2022/06/24 01:10:10;;;;;;;22.23;20.83;;;21.00;87.00;;;;;;5014408;28;20557;-71
2022/06/24 01:12:38;;;;;;;20.50;19.17;;;21.00;87.20;;;;;;5038192;28;20482;-70
2022/06/24 01:15:07;;;;;;;20.70;19.50;;;21.00;87.00;;;;;;5032575;28;20462;-70
2022/06/24 01:17:34;;;;;;;21.53;20.13;;;21.00;87.00;;;;;;5035219;28;20573;-73
2022/06/24 01:20:02;;;;;;;21.93;20.20;;;20.90;87.20;;;;;;5020546;28;20464;-69
2022/06/24 01:22:30;;;;;;;21.93;20.67;;;20.80;87.20;;;;;;5029625;28;20477;-69
2022/06/24 01:24:57;;;;;;;21.43;20.13;;;20.80;87.70;;;;;;5033759;28;20495;-69
2022/06/24 01:27:24;;;;;;;22.13;20.40;;;20.70;87.90;;;;;;5039618;28;21035;-73
2022/06/24 01:29:51;;;;;;;21.90;20.60;;;20.60;88.10;;;;;;5040268;28;20484;-69
2022/06/24 01:32:18;;;;;;;21.63;20.33;;;20.60;88.30;;;;;;5028511;28;21232;-69
2022/06/24 01:34:45;;;;;;;21.93;20.57;;;20.60;88.10;;;;;;5033371;28;20486;-69
2022/06/24 01:37:12;;;;;;;22.10;20.80;;;20.60;88.30;;;;;;5040527;28;20481;-69
2022/06/24 01:39:40;;;;;;;22.60;21.10;;;20.60;88.20;;;;;;5021887;28;20471;-74
2022/06/24 01:42:08;;;;;;;21.40;20.13;;;20.60;88.40;;;;;;5038601;28;20542;-70
2022/06/24 01:44:35;;;;;;;22.37;20.83;;;20.50;88.70;;;;;;5044343;28;20563;-70
2022/06/24 01:47:03;;;;;;;22.80;21.30;;;20.50;89.00;;;;;;5033695;28;20484;-69
2022/06/24 01:49:30;;;;;;;22.63;21.30;;;20.50;88.80;;;;;;5026640;28;20471;-70
2022/06/24 01:51:58;;;;;;;21.67;20.33;;;20.50;89.00;;;;;;5037076;28;20936;-69
2022/06/24 01:54:25;;;;;;;22.73;21.13;;;20.50;89.00;;;;;;5045449;28;20532;-73
2022/06/24 01:56:54;;;;;;;21.67;20.40;;;20.50;89.00;;;;;;5029061;28;20473;-69
2022/06/24 01:59:21;;;;;;;23.40;21.67;;;20.40;89.00;;;;;;5030848;28;20472;-73
2022/06/24 02:01:49;;;;;;;22.10;20.80;;;20.40;89.20;;;;;;5025781;28;20457;-70
2022/06/24 02:04:16;;;;;;;21.30;19.80;;;20.40;89.10;;;;;;5024071;28;20473;-69
2022/06/24 02:06:43;;;;;;;22.03;20.40;;;20.40;88.80;;;;;;5028316;28;20472;-69
2022/06/24 02:09:10;;;;;;;22.13;20.70;;;20.40;88.60;;;;;;5030940;28;20533;-69
2022/06/24 02:14:24;;;;;;;20.90;19.60;;;20.40;88.60;;;;;;5019811;28;20483;-71
2022/06/24 02:16:52;;;;;;;20.80;19.30;;;20.30;88.70;;;;;;5035629;28;20480;-69
2022/06/24 02:19:19;;;;;;;20.93;19.50;;;20.30;88.70;;;;;;5030536;28;20462;-69
2022/06/24 02:21:45;;;;;;;21.10;19.60;;;20.30;88.90;;;;;;5032776;28;21104;-69
2022/06/24 02:24:13;;;;;;;22.10;20.40;;;20.30;88.90;;;;;;5031695;28;20824;-69
2022/06/24 02:26:41;;;;;;;22.23;20.33;;;20.20;88.70;;;;;;5034386;28;20482;-69
2022/06/24 02:29:08;;;;;;;20.00;18.70;;;20.20;88.70;;;;;;5037872;28;20958;-71
2022/06/24 02:31:36;;;;;;;20.33;19.23;;;20.10;89.10;;;;;;5032506;28;20825;-69
2022/06/24 02:34:03;;;;;;;20.63;19.43;;;20.20;88.40;;;;;;5031821;28;20473;-70
2022/06/24 02:36:30;;;;;;;21.13;19.70;;;20.00;89.10;;;;;;5024753;28;20568;-70
2022/06/24 02:38:57;;;;;;;21.10;19.50;;;20.00;89.30;;;;;;5028790;28;20461;-69
2022/06/24 02:41:24;;;;;;;20.60;19.30;;;20.00;89.30;;;;;;5034172;28;20559;-70
2022/06/24 02:43:51;;;;;;;22.17;20.47;;;19.90;89.20;;;;;;5036017;28;20527;-67
2022/06/24 02:46:18;;;;;;;23.07;21.27;;;19.90;89.10;;;;;;5030019;28;20566;-67
2022/06/24 02:48:47;;;;;;;21.67;20.17;;;19.90;89.20;;;;;;5029908;28;20460;-67
2022/06/24 02:51:15;;;;;;;21.03;19.83;;;19.80;89.60;;;;;;5039828;28;21404;-67
2022/06/24 02:53:43;;;;;;;22.20;20.77;;;19.80;89.40;;;;;;5035463;28;21240;-67
2022/06/24 02:56:12;;;;;;;20.40;19.30;;;19.80;89.50;;;;;;5024407;28;20452;-70
2022/06/24 02:58:39;;;;;;;20.10;19.07;;;19.70;89.90;;;;;;5033605;28;20826;-69
2022/06/24 03:01:07;;;;;;;20.63;19.13;;;19.70;90.10;;;;;;5023015;28;20471;-69
2022/06/24 03:03:34;;;;;;;20.97;19.47;;;19.70;90.10;;;;;;5030837;28;20458;-69
2022/06/24 03:06:03;;;;;;;20.63;19.30;;;19.70;90.10;;;;;;5035375;28;20540;-69
2022/06/24 03:08:30;;;;;;;21.33;19.73;;;19.60;90.20;;;;;;5048048;28;20479;-69
2022/06/24 03:10:58;;;;;;;24.57;22.60;;;19.60;90.40;;;;;;5028720;28;20464;-70
2022/06/24 03:13:25;;;;;;;21.37;19.97;;;19.60;90.30;;;;;;5034872;28;20491;-69
2022/06/24 03:15:52;;;;;;;21.17;19.93;;;19.60;90.30;;;;;;5025668;28;21136;-69
2022/06/24 03:18:19;;;;;;;23.20;21.33;;;19.50;90.30;;;;;;5042867;28;21160;-70
2022/06/24 03:20:47;;;;;;;21.13;19.87;;;19.50;90.70;;;;;;5028460;28;20643;-70
2022/06/24 03:23:16;;;;;;;22.33;20.80;;;19.50;90.60;;;;;;5029318;28;20466;-69
2022/06/24 03:25:43;;;;;;;20.70;19.40;;;19.50;90.20;;;;;;5026973;28;20551;-69
2022/06/24 03:28:10;;;;;;;20.70;19.40;;;19.50;90.10;;;;;;5037548;28;20483;-72
2022/06/24 03:30:38;;;;;;;22.90;21.17;;;19.50;89.80;;;;;;5027722;28;20847;-69
2022/06/24 03:33:05;;;;;;;20.40;19.23;;;19.40;90.20;;;;;;5035013;28;20601;-70
2022/06/24 03:35:33;;;;;;;20.50;19.30;;;19.40;90.40;;;;;;5026438;28;21045;-69
2022/06/24 03:38:00;;;;;;;20.97;19.57;;;19.30;90.50;;;;;;5033534;28;20487;-69
2022/06/24 03:40:28;;;;;;;29.33;27.70;;;19.30;90.60;;;;;;5028548;28;20886;-69
2022/06/24 03:42:55;;;;;;;22.20;20.53;;;19.30;90.50;;;;;;5027935;28;20465;-69
2022/06/24 03:45:22;;;;;;;22.30;20.63;;;19.30;90.80;;;;;;5025952;28;20545;-69
2022/06/24 03:47:49;;;;;;;21.40;19.80;;;19.30;90.50;;;;;;5030142;28;21167;-69
2022/06/24 03:50:16;;;;;;;22.07;20.67;;;19.30;90.50;;;;;;5028258;28;20468;-70
2022/06/24 03:52:43;;;;;;;21.27;19.73;;;19.30;90.50;;;;;;5028581;28;20460;-69
2022/06/24 03:55:10;;;;;;;21.00;19.50;;;19.30;90.40;;;;;;5024991;28;20483;-72
2022/06/24 03:57:39;;;;;;;21.00;19.60;;;19.30;90.20;;;;;;5029450;28;20477;-69
2022/06/24 04:00:10;;;;;;;23.17;21.40;;;19.30;90.10;;;;;;5029688;28;20456;-69
2022/06/24 04:02:37;;;;;;;22.60;20.70;;;19.40;89.90;;;;;;5029347;28;20587;-71
2022/06/24 04:05:04;;;;;;;22.67;20.87;;;19.40;89.70;;;;;;5026643;28;20850;-69
2022/06/24 04:07:31;;;;;;;24.57;23.07;;;19.40;89.80;;;;;;5028586;28;20486;-71
2022/06/24 04:09:58;;;;;;;22.63;21.33;;;19.40;89.80;;;;;;5028195;28;20463;-69
2022/06/24 04:12:25;;;;;;;23.77;22.20;;;19.50;88.80;;;;;;5035657;28;20461;-69
2022/06/24 04:17:37;;;;;;;21.73;20.13;;;19.50;89.00;;;;;;5029522;28;20462;-69
2022/06/24 04:20:05;;;;;;;20.80;19.40;;;19.60;88.80;;;;;;5028148;28;20542;-69
2022/06/24 04:22:32;;;;;;;22.70;21.30;;;19.70;88.20;;;;;;5031266;28;20453;-69
2022/06/24 04:24:59;;;;;;;22.50;21.20;;;19.80;88.10;;;;;;5035203;28;20547;-69
2022/06/24 04:27:26;;;;;;;23.30;21.73;;;19.90;87.80;;;;;;5027163;28;20567;-67
2022/06/24 04:29:59;;;;;;;25.30;23.70;;;20.00;87.40;;;;;;5027012;28;20465;-67
2022/06/24 04:32:26;;;;;;;22.40;20.93;;;20.10;86.90;;;;;;5028012;28;20549;-67
2022/06/24 04:34:53;;;;;;;25.23;23.60;;;20.10;86.50;;;;;;5036360;28;20568;-67
2022/06/24 04:37:20;;;;;;;23.93;22.30;;;20.30;86.10;;;;;;5024927;28;20592;-67
2022/06/24 04:39:47;;;;;;;25.70;24.30;;;20.40;86.00;;;;;;5031494;28;20468;-68
2022/06/24 04:42:14;;;;;;;24.97;23.33;;;20.50;85.10;;;;;;5029231;28;20459;-75
2022/06/24 04:44:41;;;;;;;23.83;22.50;;;20.70;85.10;;;;;;5019478;28;20468;-71
2022/06/24 04:47:09;;;;;;;24.33;22.70;;;20.80;84.80;;;;;;5021195;28;20559;-70
2022/06/24 04:49:37;;;;;;;22.33;20.93;;;20.90;84.20;;;;;;5024012;28;20458;-70
2022/06/24 04:52:05;;;;;;;24.23;22.50;;;21.00;83.80;;;;;;5025460;28;20445;-72
2022/06/24 04:54:32;;;;;;;25.67;24.00;;;21.10;83.70;;;;;;5030990;28;20625;-70
2022/06/24 04:56:59;;;;;;;24.23;22.53;;;21.20;83.00;;;;;;5026628;28;20502;-71
2022/06/24 04:59:26;;;;;;;26.97;25.03;;;21.30;82.10;;;;;;5024971;28;20459;-72
2022/06/24 05:01:53;;;;;;;25.53;23.73;;;21.40;81.60;;;;;;5027798;28;20470;-70
2022/06/24 05:04:22;;;;;;;27.27;25.43;;;21.40;81.10;;;;;;5033379;28;20449;-70
2022/06/24 05:06:49;;;;;;;27.77;25.77;;;21.50;80.80;;;;;;5021139;28;20574;-71
2022/06/24 05:09:17;;;;;;;24.93;23.30;;;21.60;80.40;;;;;;5020007;28;20472;-76
2022/06/24 05:11:45;;;;;;;25.70;23.70;;;21.70;80.40;;;;;;5027142;28;20501;-73
2022/06/24 05:14:12;;;;;;;24.43;22.93;;;21.80;80.20;;;;;;5019546;28;20483;-72
2022/06/24 05:16:40;;;;;;;26.03;24.20;;;21.80;80.20;;;;;;5031585;28;20597;-74
2022/06/24 05:19:08;;;;;;;25.40;23.60;;;21.90;80.10;;;;;;5026291;28;20463;-71
2022/06/24 05:21:37;;;;;;;28.03;26.00;;;22.00;79.70;;;;;;5019160;28;20547;-68
2022/06/24 05:24:04;;;;;;;24.43;22.90;;;22.00;79.80;;;;;;5023720;28;20453;-68
2022/06/24 05:26:31;;;;;;;27.40;25.27;;;22.10;79.60;;;;;;5027215;28;20578;-68
2022/06/24 05:28:59;;;;;;;26.20;24.33;;;22.20;79.30;;;;;;5017884;28;20510;-67
2022/06/24 05:31:26;;;;;;;26.77;24.97;;;22.30;78.70;;;;;;5020195;28;20559;-67
2022/06/24 05:33:53;;;;;;;26.50;24.80;;;22.40;78.30;;;;;;5020869;28;20468;-67
2022/06/24 05:36:20;;;;;;;28.13;26.20;;;22.40;78.30;;;;;;5019562;28;20481;-68
2022/06/24 05:38:48;;;;;;;29.23;27.33;;;22.50;78.40;;;;;;5022116;28;21046;-68
2022/06/24 05:41:15;;;;;;;27.60;25.60;;;22.60;78.20;;;;;;5021491;28;20450;-69
2022/06/24 05:43:44;;;;;;;29.50;27.37;;;22.70;77.50;;;;;;5023383;28;20458;-69
2022/06/24 05:46:12;;;;;;;30.20;28.37;;;22.70;77.70;;;;;;5016994;28;20461;-74
2022/06/24 05:48:42;;;;;;;28.00;26.10;;;22.90;77.60;;;;;;5019865;28;20509;-70
2022/06/24 05:51:10;;;;;;;26.63;24.92;;;22.90;76.80;;;;;;5020755;28;20546;-70
2022/06/24 05:56:23;;;;;;;29.00;26.90;;;23.20;75.60;;;;;;5018331;28;20472;-72
2022/06/24 05:58:51;;;;;;;30.43;28.27;;;23.30;75.60;;;;;;5028860;28;20522;-71
2022/06/24 06:01:18;;;;;;;29.13;27.20;;;23.40;75.20;;;;;;5022848;28;20455;-71
2022/06/24 06:03:47;;;;;;;31.97;29.63;;;23.50;75.20;;;;;;5026346;28;20487;-72
2022/06/24 06:06:14;;;;;;;30.10;27.73;;;23.60;74.70;;;;;;5023356;28;20462;-71
2022/06/24 06:08:41;;;;;;;28.50;26.70;;;23.60;74.90;;;;;;5024925;28;20482;-76
2022/06/24 06:11:13;;;;;;;30.27;28.40;;;23.60;74.30;;;;;;5020362;28;20952;-72
2022/06/24 06:13:42;;;;;;;30.47;28.67;;;23.70;74.40;;;;;;5023795;28;20477;-73
2022/06/24 06:16:09;;;;;;;29.57;27.37;;;23.80;74.40;;;;;;5020174;28;20475;-74
2022/06/24 06:18:37;;;;;;;29.27;27.10;;;23.80;73.80;;;;;;5021977;28;20615;-75
2022/06/24 06:21:08;;;;;;;31.53;29.13;;;23.90;73.40;;;;;;5028521;28;20448;-72
2022/06/24 06:23:37;;;;;;;29.20;27.33;;;23.90;73.20;;;;;;5029713;28;20455;-71
2022/06/24 06:26:06;;;;;;;31.43;29.30;;;24.00;72.70;;;;;;5022886;28;20574;-71
2022/06/24 06:28:33;;;;;;;29.47;27.70;;;24.00;72.80;;;;;;5017340;28;20492;-72
2022/06/24 06:31:02;;;;;;;32.47;30.20;;;24.20;72.30;;;;;;5021705;28;20499;-71
2022/06/24 06:33:31;;;;;;;31.23;29.37;;;24.30;72.00;;;;;;5025679;28;20455;-75
2022/06/24 06:36:03;;;;;;;30.43;28.63;;;24.40;71.50;;;;;;5028494;28;20512;-71
2022/06/24 06:38:32;;;;;;;30.63;28.47;;;24.40;72.20;;;;;;5029628;28;20543;-71
2022/06/24 06:40:59;;;;;;;31.53;29.30;;;24.50;71.30;;;;;;5017585;28;20464;-67
2022/06/24 06:43:27;;;;;;;29.57;27.57;;;24.50;70.80;;;;;;5032803;28;20590;-69
2022/06/24 06:45:54;;;;;;;30.50;28.40;;;24.50;70.80;;;;;;5019521;28;20510;-70
2022/06/24 06:48:23;;;;;;;30.90;28.93;;;24.50;70.50;;;;;;5028203;28;21330;-74
2022/06/24 06:50:55;;;;;;;30.03;28.33;;;24.50;70.60;;;;;;5027550;28;20575;-70
2022/06/24 06:53:22;;;;;;;29.87;28.00;;;24.50;70.50;;;;;;5032198;28;20455;-73
2022/06/24 06:55:49;;;;;;;30.27;28.33;;;24.50;70.60;;;;;;5025400;28;20483;-73
2022/06/24 06:58:17;;;;;;;29.80;27.90;;;24.70;70.60;;;;;;5028846;28;20837;-71
2022/06/24 07:00:47;;;;;;;32.27;29.87;;;24.80;70.10;;;;;;5023347;28;20475;-72
2022/06/24 07:03:14;;;;;;;31.77;29.77;;;24.90;70.10;;;;;;5034318;28;20464;-70
2022/06/24 07:05:43;;;;;;;30.07;27.90;;;25.00;69.70;;;;;;5029613;28;20814;-70
2022/06/24 07:08:11;;;;;;;29.07;27.37;;;25.10;68.40;;;;;;5018165;28;20479;-71
2022/06/24 07:10:39;;;;;;;31.10;29.20;;;25.10;68.00;;;;;;5020392;28;20460;-75
2022/06/24 07:13:12;;;;;;;30.57;28.70;;;25.10;67.90;;;;;;5029640;28;20993;-75
2022/06/24 07:16:13;;;;;;;31.87;29.67;;;25.20;67.20;;;;;;5024608;28;20519;-72
2022/06/24 07:18:41;;;;;;;30.07;27.97;;;25.20;67.50;;;;;;5019923;28;20886;-73
2022/06/24 07:21:12;;;;;;;30.30;28.50;;;25.30;67.00;;;;;;5024052;28;21063;-72
2022/06/24 07:23:39;;;;;;;32.90;30.83;;;25.40;65.80;;;;;;5023300;28;20456;-74
2022/06/24 07:26:06;;;;;;;30.50;28.70;;;25.40;65.70;;;;;;5034491;28;20454;-72
2022/06/24 07:28:34;;;;;;;30.27;28.20;;;25.30;65.90;;;;;;5023955;28;20488;-71
2022/06/24 07:31:12;;;;;;;36.90;34.87;;;25.40;66.50;;;;;;5024550;28;20462;-72
2022/06/24 07:33:40;;;;;;;35.53;33.37;;;25.40;66.10;;;;;;5023406;28;20456;-70
2022/06/24 07:36:08;;;;;;;33.77;31.27;;;25.50;65.80;;;;;;5025401;28;20487;-69
2022/06/24 07:38:38;;;;;;;30.43;28.57;;;25.60;65.10;;;;;;5033831;28;20547;-71
2022/06/24 07:41:05;;;;;;;29.87;28.10;;;25.70;65.10;;;;;;5025309;28;20451;-73
2022/06/24 07:43:32;;;;;;;31.00;29.10;;;25.80;64.60;;;;;;5020051;28;20536;-73
2022/06/24 07:46:00;;;;;;;35.33;32.93;;;25.80;64.10;;;;;;5024128;28;20561;-71
2022/06/24 07:48:28;;;;;;;33.07;30.80;;;25.90;64.20;;;;;;5021036;28;20585;-70
2022/06/24 07:50:54;;;;;;;30.63;28.67;;;26.00;64.00;;;;;;5026820;28;20553;-75
2022/06/24 07:53:23;;;;;;;33.93;31.70;;;26.10;63.70;;;;;;5025749;28;20605;-72
2022/06/24 07:58:37;;;;;;;30.63;28.70;;;26.20;62.40;;;;;;5025398;28;20477;-71
2022/06/24 08:01:04;;;;;;;35.63;33.57;;;25.80;63.30;;;;;;5020163;28;20584;-71
2022/06/24 08:03:31;;;;;;;30.40;28.60;;;25.80;63.10;;;;;;5018424;28;20449;-69
2022/06/24 08:05:58;;;;;;;32.00;29.90;;;25.80;63.20;;;;;;5023979;28;20865;-69
2022/06/24 08:08:29;;;;;;;31.33;29.50;;;25.90;62.90;;;;;;5020401;28;20503;-68
2022/06/24 08:10:59;;;;;;;30.63;28.63;;;26.00;62.80;;;;;;5014998;28;21096;-71
2022/06/24 08:13:27;;;;;;;33.87;31.33;;;26.10;61.90;;;;;;5019326;28;20652;-76
2022/06/24 08:15:54;;;;;;;34.07;32.17;;;26.20;61.80;;;;;;5020345;28;20482;-69
2022/06/24 08:18:23;;;;;;;30.97;28.97;;;26.20;61.70;;;;;;5025461;28;20553;-70
2022/06/24 08:20:50;;;;;;;32.53;30.63;;;26.20;62.10;;;;;;5017520;28;20463;-69
2022/06/24 08:23:17;;;;;;;33.40;31.50;;;26.30;61.80;;;;;;5021884;28;20471;-70
2022/06/24 08:25:46;;;;;;;29.73;28.03;;;26.40;61.00;;;;;;5023085;28;20455;-70
2022/06/24 08:28:13;;;;;;;30.20;28.30;;;26.60;59.60;;;;;;5018619;28;20493;-74
2022/06/24 08:30:40;;;;;;;30.33;28.40;;;26.70;58.60;;;;;;5018946;28;20462;-74
2022/06/24 08:33:07;;;;;;;31.93;30.00;;;26.70;59.20;;;;;;5016224;28;20842;-74
2022/06/24 08:35:34;;;;;;;30.50;28.70;;;26.60;58.40;;;;;;5018845;28;20628;-72
2022/06/24 08:38:01;;;;;;;29.77;27.87;;;26.50;58.80;;;;;;5014686;28;20556;-74
2022/06/24 08:40:30;;;;;;;29.83;27.93;;;26.40;59.10;;;;;;5016404;28;20940;-73
2022/06/24 08:42:59;;;;;;;30.30;28.43;;;26.40;59.10;;;;;;5016597;28;20481;-69
2022/06/24 08:45:28;;;;;;;31.40;29.60;;;26.50;59.70;;;;;;5019256;28;20456;-74
2022/06/24 08:47:58;;;;;;;30.40;28.50;;;26.70;57.40;;;;;;5023155;28;20545;-77
2022/06/24 08:50:28;;;;;;;30.57;28.77;;;26.70;57.30;;;;;;5019006;28;21031;-74
2022/06/24 08:52:56;;;;;;;34.20;31.80;;;26.80;58.20;;;;;;5013969;28;20513;-72
2022/06/24 08:55:24;;;;;;;29.90;28.20;;;26.90;58.50;;;;;;5018990;28;20518;-78
2022/06/24 08:57:51;;;;;;;30.23;28.17;;;27.10;57.70;;;;;;5016614;28;20565;-74
2022/06/24 09:00:21;;;;;;;30.33;28.53;;;27.30;57.30;;;;;;5016391;28;20468;-70
2022/06/24 09:02:48;;;;;;;30.03;28.23;;;27.40;55.20;;;;;;5019924;28;20543;-70
2022/06/24 09:05:16;;;;;;;29.70;28.00;;;27.30;56.60;;;;;;5016121;28;20456;-70
2022/06/24 09:07:43;;;;;;;33.27;31.20;;;27.50;56.90;;;;;;5015764;28;20508;-74
2022/06/24 09:10:13;;;;;;;31.90;29.90;;;27.60;56.50;;;;;;5009622;28;20472;-71
2022/06/24 09:12:41;;;;;;;30.37;28.67;;;27.40;56.20;;;;;;5014641;28;20460;-69
2022/06/24 09:15:13;;;;;;;30.03;28.17;;;27.30;57.00;;;;;;5018204;28;21065;-72
2022/06/24 09:17:42;;;;;;;30.87;29.07;;;27.20;57.10;;;;;;5020586;28;20572;-71
2022/06/24 09:20:10;;;;;;;31.20;29.07;;;27.40;56.70;;;;;;5020056;28;20467;-70
2022/06/24 09:22:38;;;;;;;31.03;29.23;;;27.50;56.20;;;;;;5019903;28;20550;-70
2022/06/24 09:25:06;;;;;;;28.43;26.60;;;27.40;56.00;;;;;;5018556;28;20526;-70
2022/06/24 09:27:33;;;;;;;30.47;28.57;;;27.50;55.90;;;;;;5020418;28;20566;-70
2022/06/24 09:30:01;;;;;;;29.70;27.97;;;27.60;56.20;;;;;;5019238;28;20460;-70
2022/06/24 09:32:28;;;;;;;29.43;27.63;;;27.80;55.50;;;;;;5024649;28;20514;-69
2022/06/24 09:35:08;;;;;;;28.93;27.10;;;28.10;55.50;;;;;;5020890;28;20463;-71
2022/06/24 09:37:40;;;;;;;29.33;27.33;;;28.40;54.70;;;;;;5020928;28;20491;-69
2022/06/24 09:40:22;;;;;;;33.23;31.27;;;28.60;54.40;;;;;;5019403;28;20953;-70
2022/06/24 09:42:57;;;;;;;30.77;28.67;;;28.90;53.30;;;;;;5020015;28;20492;-74
2022/06/24 09:45:24;;;;;;;30.77;28.83;;;29.20;53.50;;;;;;5024327;28;20578;-69
2022/06/24 09:47:52;;;;;;;29.93;28.23;;;29.40;52.80;;;;;;5023905;28;20480;-69
2022/06/24 09:50:23;;;;;;;31.17;29.23;;;29.70;52.10;;;;;;5028052;28;20560;-69
2022/06/24 09:52:51;;;;;;;31.37;29.40;;;29.80;51.50;;;;;;5021201;28;20448;-70
2022/06/24 09:55:19;;;;;;;30.37;28.57;;;29.60;51.20;;;;;;5018536;28;20468;-69
2022/06/24 09:57:47;;;;;;;28.80;27.00;;;29.20;51.50;;;;;;5026678;28;20575;-75
2022/06/24 10:03:03;;;;;;;33.00;31.00;;;28.90;53.20;;;;;;5024337;28;20463;-77
2022/06/24 10:05:35;;;;;;;28.63;26.93;;;29.00;53.20;;;;;;5022905;28;20494;-71
2022/06/24 10:08:05;;;;;;;28.10;26.40;;;29.00;53.30;;;;;;5022488;28;20476;-71
2022/06/24 10:10:33;;;;;;;30.17;28.27;;;29.10;53.40;;;;;;5023065;28;20539;-72
2022/06/24 10:13:08;;;;;;;29.70;27.70;;;29.20;52.70;;;;;;5020342;28;20967;-72
2022/06/24 10:15:36;;;;;;;30.20;28.40;;;29.20;52.60;;;;;;5020140;28;21212;-71
2022/06/24 10:18:09;;;;;;;29.37;27.73;;;29.30;52.10;;;;;;5023057;28;20472;-71
2022/06/24 10:20:42;;;;;;;29.97;28.10;;;29.40;52.10;;;;;;5020160;28;20460;-69
2022/06/24 10:23:09;;;;;;;30.50;28.70;;;29.60;52.40;;;;;;5021015;28;20467;-70
2022/06/24 10:25:53;;;;;;;31.77;29.73;;;30.00;52.00;;;;;;5020815;28;20576;-71
2022/06/24 10:28:20;;;;;;;31.47;29.57;;;30.20;50.50;;;;;;5017759;28;20488;-71
2022/06/24 10:30:57;;;;;;;30.97;29.17;;;30.20;50.90;;;;;;5020807;28;20460;-72
2022/06/24 10:33:29;;;;;;;29.90;28.20;;;30.10;50.70;;;;;;5024742;28;20489;-70
2022/06/24 10:35:59;;;;;;;31.77;29.77;;;30.00;51.70;;;;;;5025207;28;20481;-72
2022/06/24 10:38:34;;;;;;;29.70;28.00;;;29.90;52.10;;;;;;5028297;28;20483;-70
2022/06/24 10:41:03;;;;;;;31.30;29.30;;;29.60;53.70;;;;;;5019041;28;20825;-69
2022/06/24 10:43:38;;;;;;;31.20;28.97;;;28.70;56.80;;;;;;5011421;28;20465;-70
2022/06/24 10:46:20;;;;;;;34.87;32.57;;;28.40;58.20;;;;;;5018219;28;20456;-70
2022/06/24 10:49:03;;;;;;;30.77;28.90;;;27.80;59.70;;;;;;5012582;28;20456;-73
2022/06/24 10:51:34;;;;;;;34.47;32.17;;;27.50;60.00;;;;;;5020487;28;20826;-74
2022/06/24 10:54:16;;;;;;;32.30;30.20;;;27.20;60.70;;;;;;5018798;28;20549;-74
2022/06/24 10:56:46;;;;;;;30.50;28.70;;;27.10;60.30;;;;;;5021768;28;20566;-74
2022/06/24 10:59:13;;;;;;;30.70;28.77;;;27.20;60.90;;;;;;5020732;28;20449;-74
2022/06/24 11:01:45;;;;;;;31.93;29.93;;;27.40;60.00;;;;;;5021151;28;20494;-73
2022/06/24 11:04:16;;;;;;;33.60;31.30;;;27.40;59.60;;;;;;5022432;28;20453;-73
2022/06/24 11:07:09;;;;;;;31.17;29.07;;;27.50;58.90;;;;;;5017701;28;20484;-73
2022/06/24 11:09:36;;;;;;;32.93;30.47;;;27.60;58.90;;;;;;5011602;28;20464;-75
2022/06/24 11:12:04;;;;;;;31.00;29.00;;;27.40;59.60;;;;;;5019226;28;20464;-74
2022/06/24 11:14:31;;;;;;;30.23;28.17;;;27.10;59.90;;;;;;5021725;28;20564;-74
2022/06/24 11:16:58;;;;;;;31.40;29.40;;;27.00;60.80;;;;;;5018104;28;20484;-75
2022/06/24 11:19:25;;;;;;;30.90;29.00;;;27.00;60.30;;;;;;5016355;28;20456;-77
2022/06/24 11:21:52;;;;;;;33.33;31.33;;;26.70;60.80;;;;;;5020091;28;21051;-75
2022/06/24 11:24:22;;;;;;;31.10;29.00;;;26.60;60.90;;;;;;5022172;28;20464;-75
2022/06/24 11:27:07;;;;;;;31.33;29.33;;;26.60;60.90;;;;;;5022735;28;20480;-72
2022/06/24 11:29:51;;;;;;;31.77;29.70;;;26.70;61.00;;;;;;5015886;28;20574;-72
2022/06/24 11:32:18;;;;;;;33.17;30.97;;;26.80;60.70;;;;;;5021035;28;20463;-75
2022/06/24 11:34:45;;;;;;;30.47;28.37;;;26.70;61.20;;;;;;5019868;28;20551;-74
2022/06/24 11:37:12;;;;;;;31.20;29.30;;;26.60;61.30;;;;;;5019986;28;20509;-74
2022/06/24 11:39:42;;;;;;;30.67;28.67;;;26.60;61.90;;;;;;5021960;28;20956;-74
2022/06/24 11:42:09;;;;;;;31.73;29.73;;;26.90;60.50;;;;;;5016738;28;20554;-76
2022/06/24 11:44:37;;;;;;;32.30;30.30;;;27.00;59.70;;;;;;5023469;28;20650;-75
2022/06/24 11:47:06;;;;;;;30.53;28.60;;;27.20;58.50;;;;;;5019263;28;20495;-77
2022/06/24 11:49:34;;;;;;;32.53;30.60;;;27.10;59.20;;;;;;5018448;28;20539;-73
2022/06/24 11:52:02;;;;;;;31.17;28.93;;;26.90;59.80;;;;;;5020569;28;20923;-72
2022/06/24 11:54:31;;;;;;;30.03;28.20;;;26.80;60.20;;;;;;5013431;28;20989;-72
2022/06/24 11:57:00;;;;;;;29.70;27.80;;;26.80;60.10;;;;;;5016751;28;20842;-71
2022/06/24 11:59:27;;;;;;;30.63;28.63;;;26.90;59.90;;;;;;5009236;28;20470;-71
2022/06/24 12:01:55;;;;;;;30.90;28.60;;;26.90;59.80;;;;;;5015864;28;20478;-71
2022/06/24 12:04:24;;;;;;;30.00;28.20;;;26.90;59.50;;;;;;5013387;28;20961;-72
2022/06/24 12:06:51;;;;;;;29.03;27.20;;;27.00;58.80;;;;;;5016170;28;20475;-71
2022/06/24 12:09:19;;;;;;;31.50;29.30;;;26.90;58.60;;;;;;5018891;28;20509;-71
2022/06/24 12:11:48;;;;;;;29.10;27.10;;;26.80;57.00;;;;;;5016772;28;20901;-71
2022/06/24 12:14:18;;;;;;;30.03;28.13;;;26.60;57.50;;;;;;5011692;28;20474;-72
2022/06/24 12:16:57;;;;;;;31.57;29.63;;;26.70;57.70;;;;;;5011380;28;20492;-72
2022/06/24 12:19:25;;;;;;;29.27;27.47;;;27.00;57.50;;;;;;5014707;28;20463;-71
2022/06/24 12:22:09;;;;;;;27.00;25.50;;;26.80;57.10;;;;;;5016093;28;20452;-72
2022/06/24 12:24:41;;;;;;;27.50;25.80;;;26.40;57.00;;;;;;5013926;28;20457;-71
2022/06/24 12:27:09;;;;;;;28.60;27.00;;;26.30;57.60;;;;;;5016071;28;20502;-72
2022/06/24 12:29:39;;;;;;;29.17;27.33;;;26.30;57.90;;;;;;5013457;28;20972;-71
2022/06/24 12:32:09;;;;;;;28.17;26.60;;;26.30;57.80;;;;;;5015515;28;20558;-72
2022/06/24 12:34:37;;;;;;;27.77;26.23;;;26.50;57.70;;;;;;5017166;28;20847;-71
2022/06/24 12:37:07;;;;;;;28.33;26.73;;;26.70;56.60;;;;;;5016327;28;21000;-72
2022/06/24 12:39:35;;;;;;;28.80;27.10;;;26.70;56.20;;;;;;5016400;28;20460;-71
2022/06/24 12:42:03;;;;;;;29.90;28.00;;;26.30;56.90;;;;;;5016368;28;20863;-74
2022/06/24 12:44:42;;;;;;;28.30;26.70;;;26.00;56.60;;;;;;5018115;28;20477;-75
2022/06/24 12:52:44;;;;;;;29.93;28.17;;;25.60;61.70;;;;;;5020310;28;20953;-73
2022/06/24 12:55:16;;;;;;;30.40;28.60;;;25.10;65.20;;;;;;5014231;28;20510;-74
2022/06/24 12:57:44;;;;;;;29.03;27.20;;;24.70;65.80;;;;;;5017017;28;20488;-72